Lansdowne House, Canada
Current Conditions -  °F | °C
As of 3:00 PM on Friday 31 Oct 2014 (Local Time) from CYLH Reporting Station
Overcast Overcast  
Wind Chill: -7°   Ceiling: 1900
Heat Index: -3°   Visibility: 9mi
Dew Point: -7°   Wind: 6mph
Humidity: 74%   Direction: 300°WNW
Pressure: 30.42"   Gusts: NA
Location:  52.21°N, 87.89°W
Report Text: CYLH 311900Z AUTO 30005KT 250V350 9SM OVC019 M03/M07 A3042 RMK SLP318
Loading
Personal Weather Stations






























Interactive Weather Map
Tropical Storm Tracking
New forecast layout! Learn more

10-Day Weather Forecast

Advertisements
Track Severe Weather on mobile